Terminal Aerodrome Forecast
Issued by NWS Rapid City, SD

Home | Current Version | Previous Version | Text Only | Print | Product List | Glossary On
Versions: 1 2 3 4 5 6 7 8 9 10 11 12 13 14 15
000
FTUS43 KUNR 182332
TAFRAP
TAF
KRAP 182332Z 1900/1924 35020G28KT 1SM -SN VV012
     FM190200 01017G27KT 3/4SM -SN BLSN VV005
     FM191400 01015KT 1SM -SN OVC015
     FM192000 02014KT 3SM -SN BKN015 OVC030=

USA.gov is the U.S. government's official web portal to all federal, state and local government web resources and services.